createdAt,value
2022-09-28T06:50:14.472Z,7.55
2022-09-28T06:55:41.327Z,7.93
2022-09-28T07:00:45.160Z,7.07
2022-09-28T07:05:52.608Z,8.30
2022-09-28T07:11:13.599Z,8.63
2022-09-28T07:17:05.328Z,7.93
2022-09-28T07:22:05.793Z,8.55
2022-09-28T07:27:11.159Z,9.57
2022-09-28T07:32:32.180Z,9.82
2022-09-28T07:37:59.512Z,8.73
2022-09-28T07:43:07.648Z,8.35
2022-09-28T07:48:16.093Z,8.77
2022-09-28T07:53:40.026Z,9.82
2022-09-28T07:58:54.698Z,9.63
2022-09-28T08:04:16.943Z,10.40
2022-09-28T08:09:24.179Z,9.77
2022-09-28T08:14:46.734Z,9.27
2022-09-28T08:20:27.766Z,9.90
2022-09-28T08:25:35.675Z,10.20
2022-09-28T08:30:40.955Z,9.75
2022-09-28T08:36:06.153Z,9.27
2022-09-28T08:41:43.684Z,7.28
2022-09-28T08:47:07.958Z,8.13
2022-09-28T08:52:40.334Z,9.23
2022-09-28T08:58:16.638Z,7.80
2022-09-28T09:03:28.869Z,7.88
2022-09-28T09:09:06.871Z,7.82
2022-09-28T09:15:12.072Z,7.18
2022-09-28T09:20:27.074Z,7.18
2022-09-28T09:25:46.151Z,7.88
2022-09-28T09:30:59.942Z,6.63
2022-09-28T09:36:35.638Z,7.78
2022-09-28T09:42:24.050Z,6.40
2022-09-28T09:48:09.628Z,5.88
2022-09-28T09:53:42.334Z,5.97
2022-09-28T09:58:54.527Z,6.25
2022-09-28T10:10:44.697Z,4.78
2022-09-28T10:15:54.072Z,3.58
2022-09-28T10:21:13.741Z,3.80
2022-09-28T10:26:33.744Z,2.95
2022-09-28T10:31:40.979Z,3.03
2022-09-28T10:36:58.462Z,2.13
2022-09-28T10:42:18.756Z,2.20
2022-09-28T10:47:25.663Z,2.10
2022-09-28T10:52:37.003Z,2.10
2022-09-28T10:58:13.080Z,3.75
2022-09-28T11:03:30.347Z,2.10
2022-09-28T11:08:41.467Z,1.90
2022-09-28T11:13:50.504Z,1.58
2022-09-28T11:19:34.456Z,1.45
2022-09-28T11:24:49.479Z,1.50
2022-09-28T11:30:00.513Z,1.27
2022-09-28T11:35:19.783Z,1.67
2022-09-28T11:40:36.631Z,1.48
2022-09-28T11:45:53.606Z,2.30
2022-09-28T11:51:03.753Z,2.95
2022-09-28T11:56:18.223Z,1.90
2022-09-28T12:01:30.086Z,2.42
2022-09-28T12:07:05.062Z,2.55
2022-09-28T12:12:23.251Z,1.90
2022-09-28T12:17:33.496Z,1.45
2022-09-28T12:22:45.358Z,1.20
2022-09-28T12:27:56.705Z,1.58
2022-09-28T12:33:05.301Z,1.50
2022-09-28T12:38:29.241Z,1.00
2022-09-28T12:43:53.146Z,1.05
2022-09-28T12:50:07.241Z,1.10
2022-09-28T12:54:58.059Z,1.10
2022-09-28T13:00:05.711Z,1.35
2022-09-28T13:05:24.427Z,1.00
2022-09-28T13:10:34.707Z,1.13
2022-09-28T13:15:47.208Z,0.90
2022-09-28T13:21:09.772Z,0.98
2022-09-28T13:26:28.086Z,1.00
2022-09-28T13:31:37.145Z,0.88
2022-09-28T13:37:12.058Z,1.00
2022-09-28T13:42:29.244Z,0.70
2022-09-28T13:48:04.818Z,0.70
2022-09-28T13:53:19.705Z,0.40
2022-09-28T13:58:27.729Z,0.90
2022-09-28T14:03:45.091Z,0.82
2022-09-28T14:09:10.577Z,0.70
2022-09-28T14:14:50.663Z,0.60
2022-09-28T14:19:57.565Z,1.15
2022-09-28T14:25:11.836Z,0.88
2022-09-28T14:30:23.301Z,1.30
2022-09-28T14:35:32.757Z,0.95
2022-09-28T14:41:12.881Z,0.95
2022-09-28T14:46:33.729Z,0.60
2022-09-28T14:52:06.531Z,0.75
2022-09-28T14:57:17.894Z,0.80
2022-09-28T15:02:26.192Z,0.70
2022-09-28T15:07:34.308Z,0.80
2022-09-28T15:12:37.868Z,1.35
2022-09-28T15:17:55.398Z,1.10
2022-09-28T15:23:01.930Z,0.80
2022-09-28T15:28:19.329Z,0.98
2022-09-28T15:33:50.418Z,1.10
2022-09-28T15:38:59.968Z,0.85
2022-09-28T15:44:29.595Z,0.70
2022-09-28T15:49:42.829Z,1.30
2022-09-28T15:54:46.623Z,1.05
2022-09-28T15:59:56.856Z,0.90
2022-09-28T16:05:05.260Z,0.85
2022-09-28T16:10:33.742Z,0.90
2022-09-28T16:15:39.295Z,1.10
2022-09-28T16:20:45.741Z,2.17
2022-09-28T16:25:56.443Z,1.13
2022-09-28T16:31:03.116Z,2.50
2022-09-28T16:36:13.422Z,2.45
2022-09-28T16:41:22.483Z,2.78
2022-09-28T16:46:34.488Z,3.03
2022-09-28T16:51:40.431Z,2.80
2022-09-28T16:56:44.089Z,3.13
2022-09-28T17:01:48.723Z,3.00
2022-09-28T17:06:56.618Z,2.45
2022-09-28T17:12:00.287Z,2.13
2022-09-28T17:17:09.757Z,2.20
2022-09-28T17:22:16.713Z,2.67
2022-09-28T17:27:21.665Z,3.60
2022-09-28T17:37:29.906Z,3.85
2022-09-28T17:47:36.779Z,2.42
2022-09-28T17:52:42.182Z,2.10
2022-09-28T17:57:48.120Z,2.05
2022-09-28T18:02:52.290Z,1.60
2022-09-28T18:07:58.085Z,1.83
2022-09-28T18:13:01.687Z,4.65
2022-09-28T18:18:09.525Z,4.35
2022-09-28T18:23:14.490Z,1.80
2022-09-28T18:33:22.143Z,2.30
2022-09-28T18:38:28.515Z,2.30
2022-09-28T18:43:35.647Z,2.35
2022-09-28T18:48:40.553Z,2.20
2022-09-28T18:53:46.743Z,2.60
2022-09-28T18:58:51.649Z,2.90
2022-09-28T19:03:55.128Z,2.10
2022-09-28T19:09:00.155Z,2.30
2022-09-28T19:19:12.818Z,2.63
2022-09-28T19:24:19.401Z,3.10
2022-09-28T19:29:23.673Z,2.95
2022-09-28T19:34:30.163Z,9.23
2022-09-28T19:39:35.336Z,8.35
2022-09-28T19:49:43.091Z,7.65
2022-09-28T19:54:56.498Z,7.30
2022-09-28T20:00:03.979Z,10.70
2022-09-28T20:05:10.771Z,8.68
2022-09-28T20:10:15.793Z,9.00
2022-09-28T20:20:28.282Z,9.07
2022-09-28T20:25:33.218Z,11.50
2022-09-28T20:30:38.428Z,12.18
2022-09-28T20:35:44.523Z,9.60
2022-09-28T20:40:50.188Z,9.07
2022-09-28T20:45:56.852Z,9.88
2022-09-28T20:51:03.028Z,9.68
2022-09-28T20:56:09.632Z,9.63
2022-09-28T21:01:17.150Z,7.95
2022-09-28T21:06:23.146Z,8.48
2022-09-28T21:11:29.736Z,8.23
2022-09-28T21:16:36.258Z,7.95
2022-09-28T21:21:40.026Z,6.83
2022-09-28T21:26:48.470Z,6.50
2022-09-28T21:31:51.997Z,5.97
2022-09-28T21:36:55.516Z,5.70
2022-09-28T21:42:00.416Z,6.75
2022-09-28T21:47:03.876Z,5.57
2022-09-28T21:52:09.392Z,5.38
